• Join FlightAware (Why Join?)
  • Login
  • US Flag 
01:29PM EDT


 

Airport Tracker/Info


-or-


 

Live Flight TrackerFlight Track Log ✈ DAL1979 ✈ 13-Jul-2013 ✈ KMCO - KMSP

Flight Track Log - Related Links

Times and Time Zones

All times are in EDT time to prevent confusion due to time zone crossing. See the DAL1979 flight status page for this flight to view local times or setup timezone preferences in your user account.

Time Position Orientation Groundspeed Altitude Reporting Facility
EDT Latitude Longitude Course Direction KTS MPH feet Rate Location/Type
04:22PM 28.4167 -81.3000 350° North 175 201 600  Level Orlando TRACON
04:22PM 28.3833 -81.2833 156° South 191 220 1,600 2,280 Climbing Orlando TRACON
04:23PM 28.3333 -81.2500 150° Southeast 254 292 3,800 2,640 Climbing Orlando TRACON
04:24PM 28.3167 -81.1500 101° East 276 318 7,000 1,920 Climbing Orlando TRACON
04:25PM 28.7838 -81.3500 North  Level FlightAware Approximate
04:25PM 28.3333 -81.0500 79° East 294 338 8,100  Level Orlando TRACON
04:26PM 28.9083 -81.3650 350° North  Level FlightAware Approximate
04:26PM 28.4000 -81.0000 33° Northeast 310 357 10,000  Level Orlando TRACON
04:27PM 29.0333 -81.3733 350° North  Level FlightAware Approximate
04:27PM 28.4833 -80.9833 10° North 351 404 11,400  Level Orlando TRACON
04:28PM 28.5667 -80.9833 360° North 401 461 12,400 1,440 Climbing Orlando TRACON
04:29PM 28.6333 -81.0833 307° West 417 480 14,200 1,800 Climbing Orlando TRACON
04:30PM 28.7000 -81.1833 307° West 424 488 16,000 600 Climbing Orlando TRACON
04:32PM 28.8969 -81.2444 345° North 463 533 15,900 600 Descending Jacksonville Center
04:33PM 29.0139 -81.2447 360° North 429 494 17,800 2,100 Climbing Jacksonville Center
04:34PM 29.1242 -81.2264 North 400 460 20,200 1,980 Climbing Jacksonville Center
04:35PM 29.2386 -81.2053 North 408 470 21,800 1,380 Climbing Jacksonville Center
04:36PM 29.3531 -81.1819 10° North 408 470 23,000 1,140 Climbing Jacksonville Center
04:37PM 29.4719 -81.1703 North 422 486 24,100 1,020 Climbing Jacksonville Center
04:38PM 29.5767 -81.1947 349° North 422 486 25,100 900 Climbing Jacksonville Center
04:39PM 29.6942 -81.2428 340° North 427 491 26,000 900 Climbing Jacksonville Center
04:40PM 29.8158 -81.2886 342° North 445 512 26,900 900 Climbing Jacksonville Center
04:41PM 29.9397 -81.3369 341° North 451 519 27,800 900 Climbing Jacksonville Center
04:42PM 30.0781 -81.3900 342° North 469 540 28,800 600 Climbing Jacksonville Center
04:43PM 30.2061 -81.4383 342° North 474 545 29,000 60 Climbing Jacksonville Center
04:44PM 30.3339 -81.4869 342° North 474 545 29,000  Level Jacksonville Center
04:45PM 30.4619 -81.5383 341° North 479 551 29,000  Level Jacksonville Center
04:46PM 30.5897 -81.5894 341° North 484 557 29,000  Level Jacksonville Center
04:47PM 30.7175 -81.6408 341° North 484 557 29,000  Level Jacksonville Center
04:48PM 30.8331 -81.7167 331° Northwest 472 543 29,000  Level Jacksonville Center
04:49PM 30.8950 -81.8517 298° West 452 520 29,000 180 Level Jacksonville Center
04:50PM 30.9169 -82.0014 280° West 440 506 29,400 420 Climbing Jacksonville Center
04:51PM 30.9514 -82.1464 286° West 459 528 29,900 240 Climbing Jacksonville Center
04:52PM 30.9731 -82.2989 279° West 470 541 29,900  Level Jacksonville Center
04:53PM 30.9967 -82.4492 280° West 476 548 29,900  Level Jacksonville Center
04:54PM 31.0200 -82.5992 280° West 476 548 29,900  Level Jacksonville Center
04:55PM 31.0411 -82.7519 279° West 476 548 29,900  Level Jacksonville Center
04:56PM 31.0661 -82.8975 281° West 476 548 29,900  Level Jacksonville Center
04:57PM 31.0892 -83.0478 280° West 476 548 30,000  Climbing Jacksonville Center
04:58PM 31.1097 -83.1814 280° West 471 542 30,000  Level Jacksonville Center
04:59PM 31.1322 -83.3344 280° West 471 542 30,000  Level Jacksonville Center
05:00PM 31.1547 -83.4850 280° West 471 542 30,000  Level Jacksonville Center
05:01PM 31.1789 -83.6333 281° West 471 542 30,000  Level Jacksonville Center
05:02PM 31.2008 -83.7839 280° West 471 542 30,000  Level Jacksonville Center
05:03PM 31.2228 -83.9325 280° West 471 542 30,000  Level Jacksonville Center
05:04PM 31.2444 -84.0808 280° West 471 542 30,000  Level Jacksonville Center
05:05PM 31.2994 -84.2153 296° West 466 536 30,000  Level Jacksonville Center
05:06PM 31.3986 -84.3189 318° Northwest 457 526 30,000  Level Jacksonville Center
05:09PM 31.6431 -84.5903 317° Northwest 485 558 30,000  Level Atlanta Center
05:10PM 31.7428 -84.7006 317° Northwest 485 558 30,000  Level Atlanta Center
05:11PM 31.8422 -84.8089 317° Northwest 485 558 30,000  Level Atlanta Center
05:12PM 31.9397 -84.9175 317° Northwest 478 550 30,000  Level Atlanta Center
05:13PM 32.0392 -85.0286 317° Northwest 478 550 30,000  Level Atlanta Center
05:14PM 32.1383 -85.1403 316° Northwest 478 550 30,000  Level Atlanta Center
05:15PM 32.2353 -85.2444 318° Northwest 478 550 30,000  Level Atlanta Center
05:16PM 32.3386 -85.3614 316° Northwest 489 563 30,000  Level Atlanta Center
05:17PM 32.4375 -85.4711 317° Northwest 494 568 30,000  Level Atlanta Center
05:18PM 32.5364 -85.5811 317° Northwest 494 568 30,000  Level Atlanta Center
05:19PM 32.6372 -85.6964 316° Northwest 494 568 30,000  Level Atlanta Center
05:20PM 32.7317 -85.8044 316° Northwest 494 568 30,000  Level Atlanta Center
05:21PM 32.8281 -85.9175 315° West 489 563 30,000  Level Atlanta Center
05:22PM 32.9264 -86.0336 315° West 489 563 30,000  Level Atlanta Center
05:23PM 33.0247 -86.1472 316° Northwest 489 563 30,000  Level Atlanta Center
05:24PM 33.1231 -86.2586 317° Northwest 494 568 30,000  Level Atlanta Center
05:25PM 33.2211 -86.3731 316° Northwest 494 568 30,000  Level Atlanta Center
05:26PM 33.3150 -86.4825 316° Northwest 486 559 30,000  Level Atlanta Center
05:27PM 33.4108 -86.5944 316° Northwest 478 550 30,000  Level Atlanta Center
05:28PM 33.5067 -86.7044 316° Northwest 478 550 30,000  Level Atlanta Center
05:29PM 33.6022 -86.8197 315° West 478 550 30,000  Level Atlanta Center
05:30PM 33.7044 -86.9153 322° Northwest 472 543 30,000  Level Atlanta Center
05:32PM 33.9536 -87.0617 334° Northwest 500 575 30,000  Level Memphis Center
05:33PM 34.0742 -87.1222 337° Northwest 488 562 30,000  Level Memphis Center
05:34PM 34.1947 -87.1906 335° Northwest 481 554 30,000 -240 Level Memphis Center
05:35PM 34.3194 -87.2489 339° North 466 536 29,600 -600 Descending Memphis Center
05:36PM 34.4339 -87.3178 334° Northwest 466 536 28,800 -840 Descending Memphis Center
05:37PM 34.5503 -87.3817 336° Northwest 460 529 28,000 -420 Descending Memphis Center
05:38PM 34.6644 -87.4508 334° Northwest 460 529 28,000  Level Memphis Center
05:39PM 34.7681 -87.5081 336° Northwest 447 514 28,000  Level Memphis Center
05:40PM 34.8800 -87.5675 336° Northwest 454 522 28,000  Level Memphis Center
05:41PM 34.9983 -87.6369 334° Northwest 454 522 28,000  Level Memphis Center
05:42PM 35.1125 -87.7019 335° Northwest 449 517 28,000  Level Memphis Center
05:43PM 35.2306 -87.7642 337° Northwest 449 517 28,000  Level Memphis Center
05:44PM 35.3444 -87.8294 335° Northwest 449 517 28,000  Level Memphis Center
05:45PM 35.4669 -87.9047 333° Northwest 443 510 28,000  Level Memphis Center
05:46PM 35.5786 -87.9653 336° Northwest 443 510 28,000  Level Memphis Center
05:47PM 35.6883 -88.0258 336° Northwest 443 510 28,000  Level Memphis Center
05:48PM 35.7978 -88.0894 335° Northwest 436 502 28,000  Level Memphis Center
05:49PM 35.8989 -88.1403 338° Northwest 436 502 28,000  Level Memphis Center
05:50PM 36.0064 -88.2042 334° Northwest 431 496 28,000  Level Memphis Center
05:51PM 36.1139 -88.2656 335° Northwest 426 490 28,000  Level Memphis Center
05:52PM 36.2211 -88.3322 333° Northwest 426 490 28,000  Level Memphis Center
05:53PM 36.3306 -88.3914 336° Northwest 426 490 28,000  Level Memphis Center
05:54PM 36.4378 -88.4558 334° Northwest 426 490 28,000  Level Memphis Center
05:55PM 36.5472 -88.5206 335° Northwest 426 490 28,000  Level Memphis Center
05:56PM 36.6567 -88.5825 336° Northwest 431 496 28,000  Level Memphis Center
05:57PM 36.7639 -88.6475 334° Northwest 426 490 28,000  Level Memphis Center
05:58PM 36.8667 -88.7103 334° Northwest 420 483 28,000  Level Memphis Center
05:59PM 36.9697 -88.7703 335° Northwest 415 478 28,000  Level Memphis Center
06:00PM 37.0725 -88.8358 333° Northwest 410 472 28,000  Level Memphis Center
06:02PM 37.3358 -88.9889 335° Northwest 409 471 28,000  Level Kansas City Center
06:03PM 37.4361 -89.0483 335° Northwest 403 464 28,000  Level Kansas City Center
06:04PM 37.5383 -89.1136 333° Northwest 408 470 28,000  Level Kansas City Center
06:05PM 37.6389 -89.1733 335° Northwest 404 465 28,000  Level Kansas City Center
06:06PM 37.7403 -89.2356 334° Northwest 404 465 28,000  Level Kansas City Center
06:07PM 37.8611 -89.3083 335° Northwest 404 465 28,000  Level Kansas City Center
06:08PM 37.9625 -89.3686 335° Northwest 404 465 28,000  Level Kansas City Center
06:09PM 38.0478 -89.4208 334° Northwest 404 465 28,000  Level Kansas City Center
06:10PM 38.1700 -89.4967 334° Northwest 399 459 28,000  Level Kansas City Center
06:11PM 38.2683 -89.5567 334° Northwest 394 453 28,000  Level Kansas City Center
06:12PM 38.3744 -89.6225 334° Northwest 395 455 28,000  Level Kansas City Center
06:13PM 38.4706 -89.6822 334° Northwest 395 455 28,000  Level Kansas City Center
06:14PM 38.5661 -89.7425 334° Northwest 398 458 28,000  Level Kansas City Center
06:15PM 38.6636 -89.8025 334° Northwest 394 453 28,000  Level Kansas City Center
06:16PM 38.7606 -89.8622 334° Northwest 391 450 28,000  Level Kansas City Center
06:17PM 38.8792 -89.9367 334° Northwest 396 456 28,000  Level Kansas City Center
06:19PM 38.9781 -89.9989 334° Northwest 399 459 28,000  Level Kansas City Center
06:20PM 39.0772 -90.0614 334° Northwest 400 460 28,000  Level Kansas City Center
06:21PM 39.1772 -90.1258 333° Northwest 403 464 28,000  Level Kansas City Center
06:22PM 39.2786 -90.1900 334° Northwest 407 468 28,000  Level Kansas City Center
06:23PM 39.3800 -90.2558 333° Northwest 410 472 28,000  Level Kansas City Center
06:24PM 39.5025 -90.3356 333° Northwest 412 474 28,000  Level Kansas City Center
06:25PM 39.6056 -90.4011 334° Northwest 414 476 28,000  Level Kansas City Center
06:26PM 39.7103 -90.4689 334° Northwest 418 481 28,000  Level Kansas City Center
06:27PM 39.8219 -90.5408 334° Northwest 421 484 28,000  Level Kansas City Center
06:28PM 39.9278 -90.6108 333° Northwest 423 487 28,000  Level Kansas City Center
06:29PM 40.0339 -90.6792 334° Northwest 423 487 28,000  Level Kansas City Center
06:30PM 40.1425 -90.7503 333° Northwest 430 495 28,000  Level Chicago Center
06:31PM 40.2478 -90.8203 333° Northwest 431 496 28,000  Level Chicago Center
06:32PM 40.3592 -90.8931 334° Northwest 437 503 28,000  Level Kansas City Center
06:33PM 40.4700 -90.9672 333° Northwest 443 510 28,000  Level Chicago Center
06:34PM 40.5814 -91.0386 334° Northwest 443 510 28,000  Level Chicago Center
06:35PM 40.6922 -91.1147 332° Northwest 447 514 28,000  Level Chicago Center
06:36PM 40.8061 -91.1894 334° Northwest 453 521 28,000  Level Chicago Center
06:37PM 40.9183 -91.2658 333° Northwest 452 520 28,000  Level Chicago Center
06:38PM 41.0544 -91.3567 333° Northwest 454 522 28,000  Level Chicago Center
06:39PM 41.1675 -91.4333 333° Northwest 456 525 28,000  Level Chicago Center
06:40PM 41.2889 -91.5161 333° Northwest 462 532 28,000  Level Chicago Center
06:41PM 41.4022 -91.5939 333° Northwest 462 532 28,000  Level Chicago Center
06:42PM 41.5175 -91.6731 333° Northwest 467 537 28,000  Level Chicago Center
06:43PM 41.6333 -91.7519 333° Northwest 470 541 28,000  Level Chicago Center
06:44PM 41.7489 -91.8319 333° Northwest 471 542 28,000  Level Chicago Center
06:45PM 41.8669 -91.9139 333° Northwest 478 550 28,000  Level Chicago Center
06:46PM 42.0086 -92.0119 333° Northwest 480 552 28,000  Level Chicago Center
06:47PM 42.1253 -92.0928 333° Northwest 475 547 28,000  Level Chicago Center
06:48PM 42.2439 -92.1769 332° Northwest 480 552 28,000  Level Chicago Center
06:49PM 42.3639 -92.2619 332° Northwest 485 558 28,000  Level Chicago Center
06:50PM 42.4817 -92.3467 332° Northwest 483 556 28,000  Level Chicago Center
06:51PM 42.5967 -92.4369 330° Northwest 479 551 28,000  Level Chicago Center
06:52PM 42.7303 -92.5589 326° Northwest 482 555 28,000  Level Chicago Center
06:53PM 42.8497 -92.6458 332° Northwest 486 559 28,000  Level Chicago Center
06:54PM 42.9744 -92.7108 339° North 482 555 28,000  Level Chicago Center
06:56PM 43.0994 -92.7775 339° North 484 557 28,000  Level Chicago Center
06:57PM 43.2239 -92.8450 338° Northwest 483 556 28,000 -180 Level Chicago Center
06:57PM 43.2731 -92.8728 338° Northwest 484 557 27,700 -1,380 Descending Minneapolis Center
06:58PM 43.4453 -92.9639 339° North 476 548 25,700 -2,160 Descending Minneapolis Center
06:59PM 43.5597 -93.0286 338° Northwest 453 521 23,300 -2,340 Descending Minneapolis Center
07:00PM 43.6717 -93.0889 339° North 443 510 20,900 -2,520 Descending Minneapolis Center
07:01PM 43.7775 -93.1233 347° North 415 478 18,100 -2,520 Descending Minneapolis Center
07:02PM 43.8836 -93.1436 352° North 391 450 15,800 -2,400 Descending Minneapolis Center
07:03PM 44.0056 -93.1708 351° North 377 434 13,300 -2,400 Descending Minneapolis Center
07:04PM 44.1025 -93.1933 351° North 359 413 10,900 -1,620 Descending Minneapolis Center
07:05PM 44.1997 -93.2161 350° North 354 407 10,000 -480 Descending Minneapolis Center
07:06PM 44.2975 -93.2172 360° North 352 405 10,000  Level Minneapolis Center
07:07PM 44.3975 -93.2061 North 360 414 10,000  Level Minneapolis Center
07:09PM 44.4956 -93.1958 North 356 410 10,000  Level Minneapolis Center
07:10PM 44.5928 -93.1858 North 352 405 10,000 -60 Level Minneapolis Center
07:11PM 44.6969 -93.2219 346° North 311 358 9,900 -1,020 Descending Minneapolis Center
07:12PM 44.7708 -93.2706 335° Northwest 286 329 8,000 -1,380 Descending Minneapolis Center
07:13PM 44.8364 -93.3394 323° Northwest 283 326 7,100 -1,380 Descending Minneapolis Center
07:14PM 44.8736 -93.4308 300° West 271 312 5,200 -1,560 Descending Minneapolis Center
07:15PM 44.9408 -93.4517 348° North 286 329 4,000 -1,200 Descending Minneapolis Center